Time;durP1;ratioP1;P1;durP2;ratioP2;P2;SDS_P1;SDS_P2;PMS_P1;PMS_P2;Temp;Humidity;BMP_temperature;BMP_pressure;BME280_temperature;BME280_humidity;BME280_pressure;Samples;Min_cycle;Max_cycle;Signal;HPM_P1;HPM_P2
2022/04/09 00:00:21;;;;;;;8.17;5.50;;;;;;;12.03;63.36;98175.00;5018989;28;20167;-89
2022/04/09 00:02:47;;;;;;;12.57;5.57;;;;;;;10.48;62.93;97927.97;5018326;28;20555;-88
2022/04/09 00:05:13;;;;;;;7.57;5.40;;;;;;;12.55;62.92;98282.53;5018148;28;20166;-88
2022/04/09 00:07:39;;;;;;;9.57;5.80;;;;;;;13.36;62.64;98390.66;5018314;28;20166;-89
2022/04/09 00:10:06;;;;;;;11.13;6.37;;;;;;;13.21;63.21;98385.31;5016370;28;20190;-89
2022/04/09 00:12:32;;;;;;;11.17;6.20;;;;;;;13.25;63.42;98399.78;5018717;28;20231;-87
2022/04/09 00:14:57;;;;;;;12.10;6.50;;;;;;;11.71;63.70;98133.00;5017873;28;20194;-87
2022/04/09 00:17:23;;;;;;;9.27;5.43;;;;;;;13.31;63.71;98387.19;5020197;28;20167;-88
2022/04/09 00:19:49;;;;;;;11.93;5.40;;;;;;;11.43;64.03;98092.69;5017282;28;20159;-88
2022/04/09 00:22:15;;;;;;;9.03;5.63;;;;;;;11.32;64.38;98084.06;5018378;28;20171;-87
2022/04/09 00:24:40;;;;;;;8.67;5.47;;;;;;;10.31;63.83;97893.88;5017278;28;20167;-88
2022/04/09 00:27:06;;;;;;;8.53;5.57;;;;;;;11.85;64.53;98172.13;5014850;28;20205;-88
2022/04/09 00:29:31;;;;;;;8.93;5.80;;;;;;;11.29;64.88;98112.72;5014999;28;20205;-87
2022/04/09 00:31:57;;;;;;;7.27;5.30;;;;;;;9.71;65.31;97840.34;5016823;28;20610;-88
2022/04/09 00:34:23;;;;;;;10.20;5.43;;;;;;;10.53;65.91;98011.53;5014865;28;20587;-88
2022/04/09 00:36:48;;;;;;;8.83;5.50;;;;;;;11.07;66.25;98135.91;5030988;28;20170;-89
2022/04/09 00:39:14;;;;;;;8.63;5.57;;;;;;;12.22;68.28;98409.63;5014999;28;20174;-87
2022/04/09 00:41:41;;;;;;;11.20;6.30;;;;;;;10.45;70.35;98169.91;5015751;28;20249;-86
2022/04/09 00:44:20;;;;;;;10.00;6.07;;;;;;;11.26;71.06;98284.94;5033065;28;20170;-89
2022/04/09 00:46:46;;;;;;;10.03;5.90;;;;;;;9.42;71.06;97983.63;5025430;28;20241;-88
2022/04/09 00:49:14;;;;;;;11.13;6.80;;;;;;;7.94;73.93;97813.09;5023015;28;20171;-87
2022/04/09 00:51:41;;;;;;;13.33;6.90;;;;;;;11.09;74.46;98357.13;5018226;28;20230;-87
2022/04/09 00:54:07;;;;;;;11.17;6.77;;;;;;;9.02;73.80;97978.38;5016891;28;20697;-87
2022/04/09 00:56:33;;;;;;;15.93;7.47;;;;;;;11.03;74.06;98344.31;5013687;28;20193;-87
2022/04/09 00:59:02;;;;;;;12.93;7.37;;;;;;;9.76;73.54;98088.06;5031919;28;20179;-87
2022/04/09 01:01:32;;;;;;;13.90;7.43;;;;;;;10.08;73.61;98165.56;5014006;28;20174;-88
2022/04/09 01:03:58;;;;;;;11.80;6.50;;;;;;;10.58;73.62;98248.69;5014580;28;20181;-87
2022/04/09 01:06:24;;;;;;;14.20;7.10;;;;;;;11.60;72.71;98398.03;5015073;28;20166;-87
2022/04/09 01:08:50;;;;;;;12.97;7.00;;;;;;;9.58;73.02;98068.25;5012735;28;20171;-87
2022/04/09 01:11:16;;;;;;;13.80;6.97;;;;;;;11.62;72.31;98409.09;5011863;28;20220;-87
2022/04/09 01:13:44;;;;;;;11.63;6.50;;;;;;;10.18;72.10;98164.16;5011084;28;20167;-87
2022/04/09 01:16:09;;;;;;;12.27;6.30;;;;;;;11.31;71.41;98335.69;5010863;28;20169;-86
2022/04/09 01:18:35;;;;;;;11.17;6.17;;;;;;;10.51;72.03;98230.78;5017040;28;20171;-87
2022/04/09 01:21:02;;;;;;;11.07;6.40;;;;;;;11.48;72.94;98413.81;5011864;28;20167;-86
2022/04/09 01:23:28;;;;;;;11.20;5.90;;;;;;;9.76;71.85;98073.75;5012596;28;20302;-87
2022/04/09 01:25:56;;;;;;;11.23;6.20;;;;;;;10.06;71.07;98121.69;5012539;28;20245;-87
2022/04/09 01:28:21;;;;;;;10.20;6.60;;;;;;;9.19;70.65;97983.88;5033982;28;20166;-86
2022/04/09 01:30:47;;;;;;;12.87;6.63;;;;;;;11.69;71.34;98414.38;5015357;28;20567;-87
2022/04/09 01:33:16;;;;;;;11.63;6.70;;;;;;;9.48;71.24;98030.91;5012254;28;20174;-86
2022/04/09 01:35:41;;;;;;;9.73;6.03;;;;;;;10.82;72.73;98316.78;5012475;28;20159;-86
2022/04/09 01:38:07;;;;;;;10.53;6.50;;;;;;;8.85;73.44;98027.50;5012967;28;20561;-86
2022/04/09 01:40:32;;;;;;;11.70;6.27;;;;;;;10.67;74.79;98351.81;5013827;28;20252;-87
2022/04/09 01:42:58;;;;;;;12.50;6.90;;;;;;;10.06;75.45;98259.09;5020463;28;20257;-87
2022/04/09 01:45:24;;;;;;;12.30;6.70;;;;;;;10.31;75.25;98268.22;5035633;28;20171;-87
2022/04/09 01:47:49;;;;;;;14.07;6.73;;;;;;;10.60;75.20;98322.13;5017582;28;20254;-87
2022/04/09 01:50:15;;;;;;;15.57;6.60;;;;;;;11.21;74.79;98391.19;5014006;28;20222;-86
2022/04/09 01:52:40;;;;;;;10.50;6.70;;;;;;;10.02;73.73;98173.88;5012236;28;20182;-86
2022/04/09 01:55:06;;;;;;;12.53;6.57;;;;;;;11.41;73.59;98378.16;5015043;28;20170;-87
2022/04/09 01:57:33;;;;;;;20.33;7.20;;;;;;;10.58;73.42;98255.41;5016156;28;20727;-86
2022/04/09 01:59:59;;;;;;;12.40;6.90;;;;;;;9.17;73.27;97993.06;5016223;28;20162;-87
2022/04/09 02:02:25;;;;;;;12.70;6.67;;;;;;;8.78;72.92;97907.94;5015724;28;20238;-86
2022/04/09 02:04:50;;;;;;;11.07;6.37;;;;;;;10.23;73.75;98166.00;5014827;28;20178;-87
2022/04/09 02:07:17;;;;;;;12.63;6.53;;;;;;;8.92;73.17;97963.81;5014288;28;20528;-86
2022/04/09 02:09:42;;;;;;;11.60;6.70;;;;;;;11.63;73.14;98395.59;5017081;28;20193;-86
2022/04/09 02:12:08;;;;;;;13.73;6.53;;;;;;;10.85;73.35;98291.53;5031431;28;20265;-87
2022/04/09 02:14:34;;;;;;;12.53;6.73;;;;;;;9.30;73.31;98015.28;5015713;28;20163;-86
2022/04/09 02:16:59;;;;;;;11.07;6.13;;;;;;;9.75;72.89;98082.13;5016464;28;20159;-87
2022/04/09 02:19:24;;;;;;;9.90;6.37;;;;;;;10.81;73.82;98279.63;5015924;28;20189;-87
2022/04/09 02:21:50;;;;;;;10.13;6.60;;;;;;;10.56;72.33;98173.56;5014443;28;20163;-87
2022/04/09 02:24:15;;;;;;;12.70;6.50;;;;;;;9.23;72.42;97962.94;5015699;28;20528;-86
2022/04/09 02:26:40;;;;;;;10.20;6.57;;;;;;;11.67;72.69;98372.84;5015667;28;20253;-86
2022/04/09 02:29:06;;;;;;;16.53;6.70;;;;;;;8.78;72.96;97895.31;5014141;28;20174;-86
2022/04/09 02:31:31;;;;;;;12.07;6.53;;;;;;;9.69;72.71;98035.66;5015852;28;20242;-87
2022/04/09 02:33:57;;;;;;;14.03;6.57;;;;;;;11.53;73.95;98386.06;5015288;28;20726;-88
2022/04/09 02:36:24;;;;;;;21.73;7.30;;;;;;;10.29;73.51;98172.88;5013977;28;20632;-88
2022/04/09 02:38:49;;;;;;;15.17;7.00;;;;;;;11.61;72.97;98362.59;5014918;28;20159;-88
2022/04/09 02:41:15;;;;;;;13.77;7.47;;;;;;;9.81;73.50;98102.53;5015070;28;20171;-86
2022/04/09 02:43:41;;;;;;;11.70;7.33;;;;;;;10.35;75.78;98193.28;5020777;28;20163;-86
2022/04/09 02:46:06;;;;;;;11.50;7.23;;;;;;;11.48;75.98;98388.47;5015079;28;20166;-87
2022/04/09 02:48:32;;;;;;;13.87;7.23;;;;;;;11.39;76.48;98393.34;5013776;28;20241;-88
2022/04/09 02:50:57;;;;;;;13.17;6.90;;;;;;;8.79;76.92;97964.25;5014493;28;20286;-88
2022/04/09 02:53:23;;;;;;;11.23;6.97;;;;;;;8.56;77.53;97938.44;5013724;28;20175;-86
2022/04/09 02:55:48;;;;;;;13.47;7.37;;;;;;;10.75;78.95;98307.31;5014864;28;20241;-86
2022/04/09 02:58:13;;;;;;;14.63;8.67;;;;;;;10.42;78.82;98226.34;5015093;28;20159;-86
2022/04/09 03:00:39;;;;;;;18.03;9.10;;;;;;;10.82;79.22;98294.00;5020835;28;20159;-87
2022/04/09 03:03:05;;;;;;;20.17;10.20;;;;;;;9.16;78.57;98011.53;5038128;28;20147;-87
2022/04/09 03:05:31;;;;;;;20.90;11.67;;;;;;;10.16;79.28;98198.69;5028721;28;20186;-86
2022/04/09 03:07:57;;;;;;;21.73;11.23;;;;;;;10.24;78.70;98204.78;5017649;28;20623;-86
2022/04/09 03:10:23;;;;;;;21.47;12.57;;;;;;;9.79;78.97;98126.03;5015281;28;20198;-86
2022/04/09 03:12:49;;;;;;;24.60;12.03;;;;;;;10.05;78.82;98163.81;5015743;28;20174;-88
2022/04/09 03:15:14;;;;;;;23.03;11.50;;;;;;;9.61;78.10;98096.13;5013544;28;20175;-88
2022/04/09 03:17:41;;;;;;;21.33;11.40;;;;;;;11.32;77.88;98370.34;5014507;28;20620;-88
2022/04/09 03:20:07;;;;;;;15.57;9.27;;;;;;;11.10;77.28;98376.53;5013399;28;20182;-87
2022/04/09 03:22:33;;;;;;;15.07;8.43;;;;;;;10.40;77.19;98324.13;5017290;28;20209;-87
2022/04/09 03:24:59;;;;;;;14.70;8.47;;;;;;;10.49;78.20;98374.13;5014764;28;20193;-87
2022/04/09 03:27:25;;;;;;;16.70;8.30;;;;;;;9.87;78.17;98289.72;5017130;28;20220;-88
2022/04/09 03:29:51;;;;;;;13.90;8.00;;;;;;;7.63;78.37;97971.69;5015844;28;20581;-87
2022/04/09 03:32:17;;;;;;;14.60;7.93;;;;;;;8.44;78.99;98117.09;5014984;28;20179;-87
2022/04/09 03:34:43;;;;;;;11.63;7.13;;;;;;;9.85;80.75;98389.06;5015778;28;20165;-87
2022/04/09 03:37:09;;;;;;;11.20;7.23;;;;;;;7.16;80.55;97913.91;5017078;28;20737;-88
2022/04/09 03:39:35;;;;;;;13.03;7.13;;;;;;;7.70;82.13;97998.78;5014270;28;20170;-87
2022/04/09 03:42:01;;;;;;;15.07;8.57;;;;;;;7.84;81.76;98054.63;5012667;28;20167;-88
2022/04/09 03:44:26;;;;;;;17.10;7.87;;;;;;;8.09;82.06;98062.19;5013480;28;20241;-87
2022/04/09 03:46:59;;;;;;;19.20;8.43;;;;;;;9.95;82.55;98370.81;5013549;28;20225;-87
2022/04/09 03:49:24;;;;;;;17.60;8.50;;;;;;;7.52;82.37;97961.28;5013388;28;20256;-87
2022/04/09 03:51:49;;;;;;;21.07;8.87;;;;;;;7.49;82.29;97930.97;5012671;28;20166;-87
2022/04/09 03:54:15;;;;;;;23.30;8.60;;;;;;;7.60;82.34;97964.03;5014113;28;20198;-87
2022/04/09 03:56:42;;;;;;;25.43;9.13;;;;;;;7.89;82.31;98035.47;5012012;28;20177;-88
2022/04/09 03:59:07;;;;;;;22.20;9.50;;;;;;;8.57;82.78;98114.13;5011982;28;20167;-87
2022/04/09 04:01:33;;;;;;;20.00;8.43;;;;;;;8.47;81.87;98079.38;5014163;28;20167;-87
2022/04/09 04:03:58;;;;;;;18.37;8.50;;;;;;;8.60;81.58;98099.09;4995693;28;20183;-87
2022/04/09 04:06:23;;;;;;;18.07;8.80;;;;;;;8.25;81.44;98021.50;4993918;28;20559;-87
2022/04/09 04:08:49;;;;;;;26.47;14.40;;;;;;;8.53;80.52;98054.34;4994269;28;20174;-87
2022/04/09 04:11:14;;;;;;;32.17;18.23;;;;;;;9.40;80.92;98204.13;5012311;28;20794;-86
2022/04/09 04:13:40;;;;;;;33.57;18.13;;;;;;;10.44;81.17;98375.63;5017013;28;20182;-87
2022/04/09 04:16:05;;;;;;;26.17;14.13;;;;;;;10.68;80.43;98366.19;5006049;28;20541;-88
2022/04/09 04:18:31;;;;;;;23.43;13.07;;;;;;;9.38;78.84;98120.75;5009194;28;20633;-87
2022/04/09 04:20:56;;;;;;;29.40;13.50;;;;;;;8.15;77.81;97883.44;4993096;28;20159;-88
2022/04/09 04:23:23;;;;;;;29.03;13.37;;;;;;;9.08;77.81;98034.06;4994119;28;20642;-88
2022/04/09 04:25:49;;;;;;;27.23;11.77;;;;;;;11.19;77.28;98370.03;4993600;28;20182;-87
2022/04/09 04:28:15;;;;;;;30.30;12.27;;;;;;;10.60;77.26;98276.56;4993711;28;20163;-87
2022/04/09 04:30:40;;;;;;;20.50;10.50;;;;;;;8.50;77.63;97976.06;4993703;28;20731;-87
2022/04/09 04:33:06;;;;;;;24.07;11.47;;;;;;;8.56;77.99;97955.22;4993216;28;20254;-88
2022/04/09 04:35:31;;;;;;;20.77;11.20;;;;;;;9.99;78.08;98224.34;4993041;28;20167;-87
2022/04/09 04:37:56;;;;;;;20.67;9.10;;;;;;;8.05;79.26;97941.91;4991816;28;20230;-87
2022/04/09 04:40:22;;;;;;;25.47;10.33;;;;;;;10.65;80.39;98407.47;4993463;28;20164;-88
2022/04/09 04:42:49;;;;;;;23.40;10.20;;;;;;;8.81;80.77;98081.25;4991947;28;20543;-87
2022/04/09 04:45:15;;;;;;;29.53;11.27;;;;;;;10.80;80.37;98386.75;4998314;28;20596;-88
2022/04/09 04:47:48;;;;;;;25.23;12.30;;;;;;;10.93;80.17;98387.94;5007091;28;20233;-87
2022/04/09 04:50:16;;;;;;;25.80;12.87;;;;;;;11.05;79.60;98396.69;5000013;28;20710;-85
2022/04/09 04:52:41;;;;;;;25.80;12.20;;;;;;;10.69;78.18;98307.16;4995582;28;20164;-86
2022/04/09 04:55:11;;;;;;;27.03;12.07;;;;;;;11.32;77.20;98377.97;4998822;28;20577;-87
2022/04/09 04:57:54;;;;;;;32.80;15.00;;;;;;;11.59;76.34;98391.28;4998102;28;20179;-87
2022/04/09 05:00:22;;;;;;;24.27;12.17;;;;;;;11.73;75.38;98392.47;5015285;28;20611;-89
2022/04/09 05:02:47;;;;;;;26.57;12.27;;;;;;;8.86;75.31;97911.50;5001191;28;20171;-88
2022/04/09 05:05:13;;;;;;;25.23;11.20;;;;;;;11.66;74.82;98396.50;4997014;28;20194;-88
2022/04/09 05:07:42;;;;;;;25.33;11.00;;;;;;;11.81;73.88;98380.84;5000061;28;20175;-87
2022/04/09 05:10:09;;;;;;;27.03;11.17;;;;;;;9.40;73.63;98012.19;4995900;28;20206;-89
2022/04/09 05:12:36;;;;;;;20.10;10.70;;;;;;;11.76;73.85;98395.06;4994077;28;20706;-88
2022/04/09 05:15:06;;;;;;;26.00;11.63;;;;;;;10.31;72.87;98111.41;4994141;28;20159;-87
2022/04/09 05:17:32;;;;;;;23.03;11.10;;;;;;;11.80;71.72;98368.97;5008618;28;20175;-88
2022/04/09 05:19:57;;;;;;;20.80;11.67;;;;;;;11.55;71.07;98308.38;4992345;28;20190;-87
2022/04/09 05:22:23;;;;;;;17.63;10.83;;;;;;;12.02;70.65;98361.00;4999032;28;20481;-87
2022/04/09 05:24:49;;;;;;;19.90;11.30;;;;;;;11.75;69.30;98281.81;5010115;28;20170;-87
2022/04/09 05:27:15;;;;;;;16.27;9.67;;;;;;;9.87;68.51;97951.03;5015931;28;20156;-88
2022/04/09 05:29:40;;;;;;;17.40;8.57;;;;;;;12.48;67.59;98356.84;5003723;28;20207;-88
2022/04/09 05:32:06;;;;;;;15.83;8.67;;;;;;;11.96;67.39;98258.56;5002963;28;20297;-87
2022/04/09 05:34:31;;;;;;;16.13;8.77;;;;;;;12.05;66.86;98279.03;5000694;28;20225;-88
2022/04/09 05:36:57;;;;;;;15.47;8.73;;;;;;;12.64;66.26;98358.84;5003815;28;20171;-87
2022/04/09 05:39:23;;;;;;;16.27;9.57;;;;;;;11.63;67.24;98210.53;4997523;28;20213;-86
2022/04/09 05:41:49;;;;;;;19.60;9.43;;;;;;;10.68;66.27;98049.84;5005379;28;20560;-87
2022/04/09 05:44:14;;;;;;;17.60;9.37;;;;;;;12.30;66.65;98316.75;4998375;28;20171;-86
2022/04/09 05:46:40;;;;;;;17.80;9.67;;;;;;;11.40;65.59;98097.75;5001997;28;20167;-86
2022/04/09 05:49:05;;;;;;;21.57;10.30;;;;;;;11.10;64.93;98057.44;5004370;28;20202;-88
2022/04/09 05:51:31;;;;;;;17.30;9.20;;;;;;;11.16;64.59;98073.63;5010451;28;20194;-89
2022/04/09 05:53:56;;;;;;;20.33;9.43;;;;;;;12.52;63.90;98257.09;5000934;28;20695;-88
2022/04/09 05:56:22;;;;;;;21.83;10.03;;;;;;;12.14;63.71;98176.06;5002448;28;20178;-86
2022/04/09 05:58:48;;;;;;;20.87;10.03;;;;;;;11.05;62.91;97973.78;5015360;28;20636;-87
2022/04/09 06:01:14;;;;;;;18.80;10.67;;;;;;;10.54;62.77;97902.81;5014207;28;20168;-88
2022/04/09 06:03:41;;;;;;;16.97;9.83;;;;;;;11.07;62.05;97949.34;5003550;28;20179;-87
2022/04/09 06:06:08;;;;;;;19.00;10.70;;;;;;;11.66;61.43;98000.22;4998429;28;20183;-88
2022/04/09 06:08:34;;;;;;;21.53;10.90;;;;;;;12.69;59.97;98116.06;4997548;28;20714;-88
2022/04/09 06:10:59;;;;;;;23.73;11.43;;;;;;;12.43;59.98;98044.59;4997765;28;20184;-87
2022/04/09 06:13:25;;;;;;;21.63;11.30;;;;;;;11.62;58.70;97856.53;4997048;28;20620;-88
2022/04/09 06:15:50;;;;;;;19.97;10.90;;;;;;;14.62;58.08;98355.09;5011545;28;20255;-87
2022/04/09 06:18:16;;;;;;;18.13;10.40;;;;;;;12.96;57.84;98068.19;5011292;28;20212;-87
2022/04/09 06:20:41;;;;;;;21.80;10.87;;;;;;;13.67;57.27;98157.16;5000659;28;20542;-87
2022/04/09 06:23:08;;;;;;;19.57;10.87;;;;;;;13.26;57.30;98043.16;5001529;28;20158;-87
2022/04/09 06:25:34;;;;;;;19.47;10.03;;;;;;;15.06;56.47;98331.75;4999941;28;20171;-88
2022/04/09 06:28:00;;;;;;;17.33;9.03;;;;;;;14.26;56.15;98203.59;5001099;28;20175;-88
2022/04/09 06:30:25;;;;;;;20.50;9.27;;;;;;;13.85;56.08;98125.16;4996327;28;20277;-88
2022/04/09 06:32:51;;;;;;;24.40;10.67;;;;;;;12.82;57.64;97940.16;4995141;28;20229;-86
2022/04/09 06:35:16;;;;;;;25.30;10.40;;;;;;;14.51;58.18;98210.66;4996491;28;20196;-86
2022/04/09 06:37:41;;;;;;;19.53;10.60;;;;;;;14.04;58.78;98138.91;4995267;28;20172;-85
2022/04/09 06:40:09;;;;;;;20.93;9.83;;;;;;;14.65;57.20;98206.53;4996751;28;20644;-88
2022/04/09 06:42:37;;;;;;;16.53;8.83;;;;;;;13.22;57.98;97990.59;4995817;28;20167;-86
2022/04/09 06:45:03;;;;;;;17.77;8.50;;;;;;;13.63;58.10;98051.16;5001610;28;20164;-89
2022/04/09 06:47:29;;;;;;;13.90;7.80;;;;;;;13.33;58.27;97989.03;5020955;28;20294;-86
2022/04/09 06:49:56;;;;;;;14.43;7.87;;;;;;;15.16;58.57;98306.34;5005220;28;20777;-87
2022/04/09 06:52:22;;;;;;;14.63;7.57;;;;;;;15.38;59.16;98331.16;5010292;28;20165;-87
2022/04/09 06:54:48;;;;;;;14.10;7.50;;;;;;;15.44;58.87;98348.19;5000581;28;20244;-87
2022/04/09 06:57:13;;;;;;;14.63;7.80;;;;;;;13.75;57.28;97998.75;4995388;28;20203;-87
2022/04/09 06:59:38;;;;;;;13.43;7.50;;;;;;;15.38;56.76;98232.56;4995692;28;20171;-90
2022/04/09 07:02:04;;;;;;;14.73;6.97;;;;;;;13.20;55.17;97867.75;4996790;28;20155;-86
2022/04/09 07:04:29;;;;;;;12.93;7.07;;;;;;;15.01;54.68;98104.03;4996349;28;20525;-87
2022/04/09 07:06:55;;;;;;;18.53;11.07;;;;;;;15.58;53.80;98124.69;4994674;28;20206;-87
2022/04/09 07:09:20;;;;;;;17.00;8.27;;;;;;;15.25;52.41;98018.31;4995639;28;20210;-88
2022/04/09 07:11:45;;;;;;;17.03;9.60;;;;;;;15.38;51.46;98014.13;4994710;28;20553;-88
2022/04/09 07:14:11;;;;;;;12.77;7.17;;;;;;;15.43;51.17;98011.56;4995406;28;20546;-88
2022/04/09 07:16:36;;;;;;;12.10;6.53;;;;;;;17.75;50.17;98308.88;4996069;28;20624;-88
2022/04/09 07:19:02;;;;;;;13.83;7.10;;;;;;;15.42;49.45;97869.59;4996436;28;20620;-87
2022/04/09 07:21:28;;;;;;;11.80;6.47;;;;;;;16.29;49.34;98011.63;4996126;28;20246;-88
2022/04/09 07:23:53;;;;;;;14.83;6.57;;;;;;;15.62;49.71;97906.19;5003480;28;20172;-88
2022/04/09 07:26:20;;;;;;;9.57;6.37;;;;;;;16.26;49.53;98022.69;5004468;28;20172;-88
2022/04/09 07:28:46;;;;;;;14.13;6.73;;;;;;;18.54;48.77;98307.72;5013145;28;20564;-87
2022/04/09 07:31:12;;;;;;;11.60;6.23;;;;;;;18.19;48.16;98195.16;4994906;28;20187;-87
2022/04/09 07:33:37;;;;;;;14.67;6.67;;;;;;;19.05;46.94;98300.56;4995141;28;20168;-88
2022/04/09 07:36:04;;;;;;;15.13;6.97;;;;;;;17.09;47.03;97965.41;4995557;28;20175;-88
2022/04/09 07:38:29;;;;;;;12.73;7.17;;;;;;;18.52;47.17;98195.81;4996469;28;20171;-88
2022/04/09 07:40:55;;;;;;;10.63;7.47;;;;;;;18.10;46.22;98049.22;4997251;28;20175;-87
2022/04/09 07:43:21;;;;;;;14.13;7.30;;;;;;;18.70;46.38;98160.66;4994698;28;20167;-87
2022/04/09 07:45:46;;;;;;;14.03;6.90;;;;;;;19.03;45.28;98169.75;4995887;28;20226;-88
2022/04/09 07:48:12;;;;;;;11.23;6.30;;;;;;;19.15;44.02;98146.53;5014741;28;20234;-89
2022/04/09 07:50:37;;;;;;;12.20;6.60;;;;;;;20.72;43.48;98315.91;5030189;28;20258;-88
2022/04/09 07:53:03;;;;;;;10.83;6.77;;;;;;;19.67;43.12;98133.13;5036454;28;20185;-88
2022/04/09 07:55:28;;;;;;;12.00;6.50;;;;;;;19.08;43.60;98029.47;5021383;28;20655;-89
2022/04/09 07:57:57;;;;;;;21.47;6.07;;;;;;;19.67;42.37;98086.91;5015487;28;20202;-88
2022/04/09 08:00:23;;;;;;;10.70;6.10;;;;;;;20.87;42.24;98227.38;5024040;28;20166;-89
2022/04/09 08:02:49;;;;;;;11.43;5.60;;;;;;;21.37;41.64;98317.50;5014263;28;20232;-88
2022/04/09 08:05:18;;;;;;;11.00;6.07;;;;;;;21.41;41.49;98277.94;5013206;28;20187;-88
2022/04/09 08:07:44;;;;;;;8.93;5.43;;;;;;;21.45;41.54;98271.84;5013994;28;20197;-89
2022/04/09 08:10:11;;;;;;;10.57;5.57;;;;;;;20.08;41.10;98028.06;5015073;28;20190;-87
2022/04/09 08:12:37;;;;;;;8.17;5.53;;;;;;;19.29;41.22;97915.44;5014602;28;20167;-88
2022/04/09 08:15:04;;;;;;;9.80;5.50;;;;;;;21.70;41.01;98292.88;5014356;28;20159;-88
2022/04/09 08:17:30;;;;;;;7.97;5.30;;;;;;;21.53;41.01;98213.34;5013030;28;20891;-90
2022/04/09 08:19:56;;;;;;;12.30;5.50;;;;;;;22.27;40.17;98270.31;5012649;28;20179;-88
2022/04/09 08:22:22;;;;;;;9.80;5.30;;;;;;;20.99;39.70;98037.59;5014612;28;20190;-88
2022/04/09 08:24:48;;;;;;;9.53;5.10;;;;;;;22.80;38.97;98274.28;5020489;28;20181;-88
2022/04/09 08:27:13;;;;;;;9.93;5.10;;;;;;;21.89;38.94;98066.66;5015905;28;20238;-88
2022/04/09 08:29:39;;;;;;;8.10;5.20;;;;;;;22.11;39.13;98181.28;5013614;28;20194;-88
2022/04/09 08:32:04;;;;;;;8.10;5.00;;;;;;;21.20;39.21;98028.66;5013751;28;20182;-87
2022/04/09 08:34:33;;;;;;;9.83;5.00;;;;;;;20.67;38.80;97911.34;5013433;28;20193;-88
2022/04/09 08:37:00;;;;;;;8.03;5.40;;;;;;;21.51;37.67;98033.97;5011550;28;20293;-88
2022/04/09 08:39:25;;;;;;;12.80;5.37;;;;;;;20.99;38.18;97990.44;5013237;28;20177;-89
2022/04/09 08:41:52;;;;;;;8.17;5.07;;;;;;;20.99;38.50;97985.28;5014387;28;20242;-90
2022/04/09 08:44:18;;;;;;;11.10;4.70;;;;;;;21.80;37.53;98108.03;5013563;28;20179;-87
2022/04/09 08:46:46;;;;;;;9.10;5.10;;;;;;;21.61;36.68;97977.09;5034442;28;20175;-87
2022/04/09 08:49:12;;;;;;;6.80;4.90;;;;;;;23.38;35.78;98211.75;5015675;28;20178;-88
2022/04/09 08:51:37;;;;;;;8.37;4.70;;;;;;;23.30;36.19;98198.16;5014308;28;20264;-89
2022/04/09 08:54:04;;;;;;;8.47;5.00;;;;;;;23.67;36.27;98253.19;5013523;28;20709;-89
2022/04/09 08:56:37;;;;;;;7.57;5.27;;;;;;;22.34;36.09;98008.81;5014429;28;20174;-88
2022/04/09 08:59:03;;;;;;;8.40;4.53;;;;;;;23.60;35.23;98249.06;5015414;28;20166;-89
2022/04/09 09:01:30;;;;;;;7.63;5.00;;;;;;;22.30;36.15;98072.50;5015033;28;20650;-88
2022/04/09 09:03:56;;;;;;;8.27;5.03;;;;;;;23.29;36.79;98248.16;5014789;28;20167;-88
2022/04/09 09:06:30;;;;;;;7.03;4.80;;;;;;;23.34;36.10;98241.97;5013042;28;20253;-88
2022/04/09 09:08:57;;;;;;;9.17;5.20;;;;;;;22.88;35.58;98087.38;5017401;28;20167;-90
2022/04/09 09:11:23;;;;;;;15.80;9.37;;;;;;;21.65;35.67;97806.13;5018025;28;20197;-88
2022/04/09 09:13:51;;;;;;;9.47;5.97;;;;;;;22.53;35.54;97967.91;5014976;28;20170;-88
2022/04/09 09:16:28;;;;;;;15.10;6.97;;;;;;;24.46;35.15;98235.41;5015083;28;20171;-88
2022/04/09 09:18:56;;;;;;;10.03;5.67;;;;;;;24.47;35.11;98244.88;5015761;28;20165;-89
2022/04/09 09:21:23;;;;;;;10.70;5.27;;;;;;;24.12;35.36;98237.31;5015905;28;20166;-88
2022/04/09 09:23:50;;;;;;;9.03;5.20;;;;;;;23.42;34.92;98030.84;5017844;28;20222;-89
2022/04/09 09:26:21;;;;;;;7.70;5.10;;;;;;;24.54;35.02;98230.84;5036391;28;20193;-89
2022/04/09 09:28:55;;;;;;;10.50;6.30;;;;;;;23.19;35.83;98025.44;5025704;28;20178;-88
2022/04/09 09:31:40;;;;;;;11.83;5.93;;;;;;;23.66;34.41;98030.97;5019669;28;20277;-89
2022/04/09 09:34:09;;;;;;;8.37;5.27;;;;;;;22.84;34.73;97943.84;5013710;28;20173;-90
2022/04/09 09:36:36;;;;;;;13.07;5.30;;;;;;;24.46;34.20;98214.69;5017522;28;20155;-89
2022/04/09 09:39:06;;;;;;;8.20;5.03;;;;;;;23.10;33.65;97958.56;5016972;28;20241;-88
2022/04/09 09:41:31;;;;;;;7.30;5.20;;;;;;;23.61;33.46;98001.84;5012306;28;20163;-88
2022/04/09 09:44:05;;;;;;;6.13;4.27;;;;;;;23.51;31.83;97959.97;5014976;28;20167;-88
2022/04/09 09:46:31;;;;;;;8.60;5.33;;;;;;;24.36;32.16;98081.34;5015149;28;20171;-88
2022/04/09 09:48:57;;;;;;;8.60;5.70;;;;;;;22.85;33.33;97819.06;5013161;28;20265;-88
2022/04/09 09:51:23;;;;;;;7.57;5.00;;;;;;;24.69;32.16;98043.16;5016859;28;20218;-89
2022/04/09 09:53:49;;;;;;;8.07;4.70;;;;;;;22.82;32.32;97783.06;5016573;28;20190;-90
2022/04/09 09:56:32;;;;;;;7.20;4.67;;;;;;;25.70;31.78;98198.47;5015447;28;20170;-89
2022/04/09 09:59:00;;;;;;;6.87;4.17;;;;;;;25.70;31.33;98198.47;5019946;28;20540;-89
2022/04/09 10:01:26;;;;;;;7.93;4.60;;;;;;;24.55;30.86;97937.53;5014865;28;20174;-89
2022/04/09 10:03:53;;;;;;;8.67;4.30;;;;;;;24.26;30.28;97873.03;5016415;28;20163;-89
2022/04/09 10:06:22;;;;;;;9.23;4.60;;;;;;;22.65;30.55;97588.41;5019080;28;20189;-90
2022/04/09 10:08:48;;;;;;;12.27;5.60;;;;;;;23.62;30.83;97725.34;5019956;28;20173;-90
2022/04/09 10:11:19;;;;;;;9.50;5.37;;;;;;;26.41;30.91;98175.91;5017901;28;20293;-88
2022/04/09 10:13:47;;;;;;;8.90;5.10;;;;;;;25.45;31.07;98028.31;5012592;28;20608;-80
2022/04/09 10:16:18;;;;;;;7.63;4.80;;;;;;;24.39;32.60;98024.34;5016570;28;20167;-80
2022/04/09 10:18:48;;;;;;;7.53;4.47;;;;;;;24.08;32.79;97986.53;5026701;28;20185;-80
2022/04/09 10:21:14;;;;;;;6.47;4.57;;;;;;;24.02;32.84;97997.06;5020489;28;20186;-80
2022/04/09 10:23:41;;;;;;;10.07;4.40;;;;;;;24.98;33.33;98144.00;5016776;28;20217;-82
2022/04/09 10:26:07;;;;;;;7.43;4.80;;;;;;;23.32;33.47;97842.59;5015827;28;20163;-81
2022/04/09 10:28:38;;;;;;;8.57;4.50;;;;;;;25.00;33.36;98145.63;5015398;28;20186;-80
2022/04/09 10:31:22;;;;;;;9.23;4.73;;;;;;;24.90;33.04;98146.84;5030455;28;20199;-79
2022/04/09 10:33:58;;;;;;;9.63;4.83;;;;;;;24.30;33.87;98066.03;5015125;28;20162;-80
2022/04/09 10:36:45;;;;;;;9.77;4.67;;;;;;;24.65;33.28;98135.59;5014083;28;20181;-79
2022/04/09 10:39:21;;;;;;;7.33;4.70;;;;;;;23.33;33.77;97937.22;5015008;28;20217;-81
2022/04/09 10:41:48;;;;;;;7.87;4.63;;;;;;;23.02;33.88;97898.56;5014533;28;20177;-80
2022/04/09 10:44:33;;;;;;;7.20;4.20;;;;;;;23.14;33.75;97930.94;5014752;28;20648;-80
2022/04/09 10:47:01;;;;;;;8.00;4.20;;;;;;;22.79;33.89;97859.72;5014392;28;20593;-79
2022/04/09 10:49:28;;;;;;;6.37;4.13;;;;;;;23.85;34.25;98030.38;5014445;28;20166;-79
2022/04/09 10:52:01;;;;;;;7.27;4.53;;;;;;;23.67;34.15;97978.41;5014648;28;20209;-79
2022/04/09 10:54:26;;;;;;;13.37;4.50;;;;;;;22.67;34.68;97819.63;4997295;28;20313;-79
2022/04/09 10:56:52;;;;;;;8.13;4.20;;;;;;;23.42;33.56;97906.00;5014625;28;20175;-80
2022/04/09 10:59:17;;;;;;;8.07;4.03;;;;;;;25.13;32.97;98117.59;5014644;28;20563;-80
2022/04/09 11:01:51;;;;;;;7.60;3.70;;;;;;;25.36;32.59;98112.41;5014843;28;20165;-80
2022/04/09 11:04:25;;;;;;;8.87;3.70;;;;;;;25.71;31.85;98105.97;5014474;28;20276;-80
2022/04/09 11:07:09;;;;;;;5.43;3.63;;;;;;;25.69;31.76;98108.63;5014593;28;20158;-80
2022/04/09 11:09:44;;;;;;;7.10;3.97;;;;;;;25.27;31.87;97965.09;5014324;28;20234;-79
2022/04/09 11:12:11;;;;;;;6.77;4.40;;;;;;;25.78;31.80;98055.56;5013635;28;20190;-79
2022/04/09 11:14:49;;;;;;;6.45;3.95;;;;;;;25.71;32.09;98105.97;5013784;28;20665;-79
2022/04/09 11:17:15;;;;;;;8.95;5.30;;;;;;;26.16;31.87;98099.03;5013623;28;20273;-80
2022/04/09 11:19:41;;;;;;;6.55;4.20;;;;;;;26.09;31.27;98037.91;5013518;28;20671;-80
2022/04/09 11:22:08;;;;;;;6.00;3.97;;;;;;;24.52;31.93;97865.19;5013732;28;20257;-79
2022/04/09 11:24:38;;;;;;;6.13;4.15;;;;;;;26.35;31.68;98112.97;5013926;28;20151;-80